Kezdőlap
METAR-TAF:

METAR-TAF

Repülőterek :

Maple Lake Municipal Airport

Maple Lake, Minnesota, Amerikai Egyesült Államok

földrajzi szélesség: 45-14-10N, földrajzi hosszúság: 093-59-08W, magasság: 313 m

Jelenlegi meteorológiai megfigyelések

A jelentés 17 perccel ezelõtt készült, 08:36 UTC
Szélcsend
Hőmérséklet 8°C
Páratartalom 66%
Légköri nyomás 1012 hPa
Látótávolság: 16.1 km
Derült ég

METAR: KMGG 200836Z AUTO 00000KT 10SM CLR 08/02 A2987 RMK AO2 T00750021

Idő: 03:53 (08:53 UTC)


TAF: hiányzik

Meteorológiai megfigyelések és előrejelzések több, mint 4000 repülőtéren (METAR és TAF jelentéseket).

A térképen piros és sárga pontok jelzik az elérhető meteorológiai állomásokat.

Mozgassa az egeret a pont fölött, hogy megjelenjen az állomás neve.

Azután kattintson az időjárási megfigyelések és előrejelzések megtekintéséhez.

A térkép megváltoztatása: kattintson a fekete keresztel jelölt zöld gombra ráközelítéshez, a vonallal jelölt zöld gombra távolításhoz, vagy a zöld nyilakra a szomszédos térképek eléréséhez.


METAR-TAF: